Flagstaff, Arizona
Current Conditions -  °F | °C
As of 2:57 PM on Saturday 25 Oct 2014 (Local Time) from KFLG Reporting Station
Few Clouds Few Clouds  
Wind Chill: 66°   Ceiling: Unl
Heat Index: 66°   Visibility: 10mi
Dew Point: 41°   Wind: 14mph
Humidity: 40%   Direction: 210°SSW
Pressure: 30.31"   Gusts: 21mph
Location:  35.2°N, 111.65°W
Report Text: KFLG 252157Z 21012G18KT 10SM FEW055 19/05 A3031 RMK AO2 PK WND 21026/2133 SLP196 T01890050
Loading
Personal Weather Stations






























Interactive Weather Map
Tropical Storm Tracking
New forecast layout! Learn more

10-Day Weather Forecast

Advertisements
Track Severe Weather on mobile